Time;durP1;ratioP1;P1;durP2;ratioP2;P2;SDS_P1;SDS_P2;PMS_P1;PMS_P2;Temp;Humidity;BMP_temperature;BMP_pressure;BME280_temperature;BME280_humidity;BME280_pressure;Samples;Min_cycle;Max_cycle;Signal;HPM_P1;HPM_P2
2021/04/06 00:00:27;;;;;;;;;;;5.60;75.00;;;;;;5074604;28;19935;-65
2021/04/06 00:02:54;;;;;;;;;;;5.50;75.40;;;;;;5074754;28;19990;-64
2021/04/06 00:05:21;;;;;;;;;;;5.50;75.00;;;;;;5074589;28;19925;-64
2021/04/06 00:07:48;;;;;;;;;;;5.50;74.90;;;;;;5074512;28;19943;-64
2021/04/06 00:10:17;;;;;;;;;;;5.50;75.00;;;;;;5074151;28;19935;-64
2021/04/06 00:12:44;;;;;;;;;;;5.40;75.20;;;;;;5060689;28;19924;-64
2021/04/06 00:15:13;;;;;;;;;;;5.50;75.60;;;;;;5073956;28;20325;-64
2021/04/06 00:17:43;;;;;;;;;;;5.40;75.30;;;;;;5060990;28;20015;-64
2021/04/06 00:20:09;;;;;;;;;;;5.40;75.40;;;;;;5074036;28;19924;-65
2021/04/06 00:22:36;;;;;;;;;;;5.50;75.70;;;;;;5074294;28;19928;-64
2021/04/06 00:25:04;;;;;;;;;;;5.40;75.40;;;;;;5073824;28;20011;-64
2021/04/06 00:27:33;;;;;;;;;;;5.40;75.50;;;;;;5067472;28;19943;-65
2021/04/06 00:30:03;;;;;;;;;;;5.30;75.80;;;;;;5068039;28;19928;-65
2021/04/06 00:32:30;;;;;;;;;;;5.30;76.10;;;;;;5074264;28;20313;-64
2021/04/06 00:35:01;;;;;;;;;;;5.30;76.10;;;;;;5074216;28;19929;-63
2021/04/06 00:37:28;;;;;;;;;;;5.30;76.70;;;;;;5085558;28;19934;-63
2021/04/06 00:39:59;;;;;;;;;;;5.30;76.50;;;;;;5094122;28;19924;-64
2021/04/06 00:42:27;;;;;;;;;;;5.40;76.50;;;;;;5093858;28;19924;-64
2021/04/06 00:44:55;;;;;;;;;;;5.30;76.70;;;;;;5090460;28;19924;-64
2021/04/06 00:47:23;;;;;;;;;;;5.20;77.00;;;;;;5093592;28;19928;-63
2021/04/06 00:49:52;;;;;;;;;;;5.30;76.90;;;;;;5074516;28;19925;-64
2021/04/06 00:52:18;;;;;;;;;;;5.30;77.00;;;;;;5069377;28;20339;-64
2021/04/06 00:54:50;;;;;;;;;;;5.20;77.20;;;;;;5073688;28;19925;-64
2021/04/06 00:57:17;;;;;;;;;;;5.20;77.20;;;;;;5073267;28;19931;-64
2021/04/06 00:59:58;;;;;;;;;;;5.20;77.40;;;;;;5073444;28;19989;-63
2021/04/06 01:02:25;;;;;;;;;;;5.10;78.00;;;;;;5073023;28;20015;-64
2021/04/06 01:04:52;;;;;;;;;;;5.10;78.20;;;;;;5073344;28;20354;-64
2021/04/06 01:07:18;;;;;;;;;;;5.10;78.20;;;;;;5066979;28;20428;-63
2021/04/06 01:09:46;;;;;;;;;;;5.00;78.30;;;;;;5073447;28;19924;-64
2021/04/06 01:12:13;;;;;;;;;;;5.00;78.60;;;;;;5073096;28;20011;-64
2021/04/06 01:14:41;;;;;;;;;;;5.10;78.50;;;;;;5073372;28;19985;-64
2021/04/06 01:17:08;;;;;;;;;;;5.10;78.40;;;;;;5072703;28;19943;-64
2021/04/06 01:19:34;;;;;;;;;;;5.10;78.50;;;;;;5073178;28;20008;-64
2021/04/06 01:22:04;;;;;;;;;;;5.00;78.50;;;;;;5073190;28;19925;-65
2021/04/06 01:24:31;;;;;;;;;;;4.90;78.70;;;;;;5072367;28;20023;-64
2021/04/06 01:26:58;;;;;;;;;;;4.90;79.40;;;;;;5072924;28;20335;-64
2021/04/06 01:29:24;;;;;;;;;;;4.90;79.70;;;;;;5072471;28;19924;-64
2021/04/06 01:31:51;;;;;;;;;;;4.80;80.00;;;;;;5073074;28;20261;-64
2021/04/06 01:34:17;;;;;;;;;;;4.70;80.50;;;;;;5072594;28;19928;-64
2021/04/06 01:36:44;;;;;;;;;;;4.80;80.90;;;;;;5073055;28;20265;-64
2021/04/06 01:39:12;;;;;;;;;;;4.80;81.20;;;;;;5072436;28;19935;-64
2021/04/06 01:41:39;;;;;;;;;;;4.70;81.60;;;;;;5073211;28;19925;-64
2021/04/06 01:44:06;;;;;;;;;;;4.70;81.90;;;;;;5072738;28;20005;-64
2021/04/06 01:46:38;;;;;;;;;;;4.70;82.30;;;;;;5084922;28;20426;-64
2021/04/06 01:49:05;;;;;;;;;;;4.70;82.40;;;;;;5093017;28;19924;-64
2021/04/06 01:51:31;;;;;;;;;;;4.70;82.10;;;;;;5084910;28;19924;-64
2021/04/06 01:53:58;;;;;;;;;;;4.80;82.40;;;;;;5092122;28;19954;-63
2021/04/06 01:56:26;;;;;;;;;;;4.80;82.20;;;;;;5092675;28;20343;-65
2021/04/06 01:58:58;;;;;;;;;;;4.80;82.60;;;;;;5092682;28;19932;-64
2021/04/06 02:01:27;;;;;;;;;;;4.80;82.30;;;;;;5092485;28;20006;-64
2021/04/06 02:03:55;;;;;;;;;;;4.90;82.10;;;;;;5092996;28;19924;-64
2021/04/06 02:06:23;;;;;;;;;;;4.90;82.30;;;;;;5080864;28;19928;-64
2021/04/06 02:08:50;;;;;;;;;;;4.80;82.30;;;;;;5092772;28;20007;-64
2021/04/06 02:11:17;;;;;;;;;;;4.80;82.60;;;;;;5089939;28;20315;-64
2021/04/06 02:13:43;;;;;;;;;;;4.80;82.20;;;;;;5081759;28;19924;-64
2021/04/06 02:16:10;;;;;;;;;;;4.80;82.60;;;;;;5092615;28;19934;-64
2021/04/06 02:18:36;;;;;;;;;;;4.80;82.30;;;;;;5093011;28;20243;-64
2021/04/06 02:21:04;;;;;;;;;;;4.90;81.90;;;;;;5092793;28;20084;-63
2021/04/06 02:23:36;;;;;;;;;;;4.90;82.30;;;;;;5092116;28;19924;-64
2021/04/06 02:26:03;;;;;;;;;;;4.90;82.50;;;;;;5092717;28;20021;-63
2021/04/06 02:28:29;;;;;;;;;;;4.90;82.30;;;;;;5092178;28;19928;-64
2021/04/06 02:30:56;;;;;;;;;;;4.90;82.50;;;;;;5092733;28;20232;-64
2021/04/06 02:33:24;;;;;;;;;;;4.90;82.10;;;;;;5092445;28;20006;-65
2021/04/06 02:35:57;;;;;;;;;;;4.90;81.80;;;;;;5092692;28;19924;-64
2021/04/06 02:38:23;;;;;;;;;;;4.90;82.10;;;;;;5096209;28;20239;-64
2021/04/06 02:40:50;;;;;;;;;;;4.80;81.80;;;;;;5096612;28;19928;-64
2021/04/06 02:43:16;;;;;;;;;;;4.80;82.20;;;;;;5088725;28;19924;-64
2021/04/06 02:45:42;;;;;;;;;;;4.80;82.50;;;;;;5087134;28;20347;-63
2021/04/06 02:48:19;;;;;;;;;;;4.80;82.60;;;;;;5096313;28;20014;-64
2021/04/06 02:50:46;;;;;;;;;;;4.80;82.50;;;;;;5094514;28;19981;-65
2021/04/06 02:53:18;;;;;;;;;;;4.80;82.70;;;;;;5089596;28;20011;-65
2021/04/06 02:55:45;;;;;;;;;;;4.80;82.80;;;;;;5096071;28;19924;-65
2021/04/06 02:58:12;;;;;;;;;;;4.70;82.70;;;;;;5096050;28;20269;-64
2021/04/06 03:00:39;;;;;;;;;;;4.80;82.70;;;;;;5095597;28;20373;-64
2021/04/06 03:03:18;;;;;;;;;;;4.80;82.60;;;;;;5096404;28;19924;-64
2021/04/06 03:05:44;;;;;;;;;;;4.70;82.70;;;;;;5095806;28;19934;-64
2021/04/06 03:08:11;;;;;;;;;;;4.70;82.70;;;;;;5095910;28;19960;-65
2021/04/06 03:10:38;;;;;;;;;;;4.70;83.20;;;;;;5095643;28;20335;-64
2021/04/06 03:13:05;;;;;;;;;;;4.70;83.30;;;;;;5095780;28;19924;-63
2021/04/06 03:15:31;;;;;;;;;;;4.70;83.50;;;;;;5095685;28;19934;-64
2021/04/06 03:17:59;;;;;;;;;;;4.70;83.40;;;;;;5095922;28;19924;-63
2021/04/06 03:20:27;;;;;;;;;;;4.60;84.00;;;;;;5095374;28;19931;-63
2021/04/06 03:22:54;;;;;;;;;;;4.70;83.90;;;;;;5095705;28;20401;-63
2021/04/06 03:25:21;;;;;;;;;;;4.70;84.30;;;;;;5095957;28;19935;-64
2021/04/06 03:27:48;;;;;;;;;;;4.60;84.20;;;;;;5095172;28;19959;-64
2021/04/06 03:30:31;;;;;;;;;;;4.70;84.40;;;;;;5095580;28;20025;-64
2021/04/06 03:32:58;;;;;;;;;;;4.70;84.50;;;;;;5082683;28;19924;-64
2021/04/06 03:35:24;;;;;;;;;;;4.70;84.40;;;;;;5095656;28;19924;-64
2021/04/06 03:37:51;;;;;;;;;;;4.70;84.20;;;;;;5094955;28;19930;-64
2021/04/06 03:40:17;;;;;;;;;;;4.60;84.20;;;;;;5095544;28;19928;-64
2021/04/06 03:42:45;;;;;;;;;;;4.60;84.50;;;;;;5091959;28;19950;-64
2021/04/06 03:45:11;;;;;;;;;;;4.60;84.60;;;;;;5089434;28;19924;-64
2021/04/06 03:47:57;;;;;;;;;;;4.60;84.60;;;;;;5094330;28;19924;-63
2021/04/06 03:50:37;;;;;;;;;;;4.60;84.70;;;;;;5081261;28;19939;-63
2021/04/06 03:53:04;;;;;;;;;;;4.70;84.60;;;;;;5084460;28;20011;-64
2021/04/06 03:55:30;;;;;;;;;;;4.60;84.40;;;;;;5095113;28;19962;-63
2021/04/06 03:58:06;;;;;;;;;;;4.60;84.30;;;;;;5094735;28;20019;-64
2021/04/06 04:00:32;;;;;;;;;;;4.60;85.50;;;;;;5095056;28;20006;-64
2021/04/06 04:02:59;;;;;;;;;;;4.60;84.90;;;;;;5094527;28;19932;-64
2021/04/06 04:05:25;;;;;;;;;;;4.60;84.90;;;;;;5094910;28;19924;-62
2021/04/06 04:07:52;;;;;;;;;;;4.60;85.10;;;;;;5094623;28;19938;-65
2021/04/06 04:10:18;;;;;;;;;;;4.60;84.70;;;;;;5094849;28;19924;-65
2021/04/06 04:12:44;;;;;;;;;;;4.60;84.80;;;;;;5085890;28;19924;-64
2021/04/06 04:15:12;;;;;;;;;;;4.60;84.90;;;;;;5094883;28;19932;-65
2021/04/06 04:17:39;;;;;;;;;;;4.60;85.30;;;;;;5094762;28;19953;-65
2021/04/06 04:20:08;;;;;;;;;;;4.60;84.90;;;;;;5094313;28;20651;-64
2021/04/06 04:22:34;;;;;;;;;;;4.60;85.10;;;;;;5094714;28;20015;-64
2021/04/06 04:25:00;;;;;;;;;;;4.60;85.30;;;;;;5094099;28;19924;-64
2021/04/06 04:27:26;;;;;;;;;;;4.60;85.60;;;;;;5094443;28;19924;-64
2021/04/06 04:29:53;;;;;;;;;;;4.60;85.50;;;;;;5093978;28;19928;-65
2021/04/06 04:32:20;;;;;;;;;;;4.60;85.60;;;;;;5094387;28;20019;-65
2021/04/06 04:34:46;;;;;;;;;;;4.70;85.40;;;;;;5094125;28;20024;-65
2021/04/06 04:37:12;;;;;;;;;;;4.60;85.30;;;;;;5094210;28;19924;-64
2021/04/06 04:39:38;;;;;;;;;;;4.70;85.40;;;;;;5094137;28;19924;-63
2021/04/06 04:42:05;;;;;;;;;;;4.70;85.40;;;;;;5093909;28;20007;-64
2021/04/06 04:44:31;;;;;;;;;;;4.70;85.20;;;;;;5089769;28;20006;-64
2021/04/06 04:46:57;;;;;;;;;;;4.70;84.80;;;;;;5093810;28;19950;-65
2021/04/06 04:49:24;;;;;;;;;;;4.70;84.90;;;;;;5088906;28;19934;-65
2021/04/06 04:51:51;;;;;;;;;;;4.70;85.20;;;;;;5083068;28;20351;-64
2021/04/06 04:54:18;;;;;;;;;;;4.70;85.40;;;;;;5093626;28;19928;-63
2021/04/06 04:56:44;;;;;;;;;;;4.70;85.20;;;;;;5093587;28;19999;-65
2021/04/06 04:59:11;;;;;;;;;;;4.70;85.30;;;;;;5093438;28;19924;-65
2021/04/06 05:01:37;;;;;;;;;;;4.70;84.90;;;;;;5094068;28;20354;-64
2021/04/06 05:04:04;;;;;;;;;;;4.70;84.70;;;;;;5093368;28;19936;-64
2021/04/06 05:06:31;;;;;;;;;;;4.70;84.50;;;;;;5093788;28;19928;-65
2021/04/06 05:08:57;;;;;;;;;;;4.80;84.60;;;;;;5093395;28;19931;-64
2021/04/06 05:11:23;;;;;;;;;;;4.70;84.30;;;;;;5093778;28;19924;-65
2021/04/06 05:13:50;;;;;;;;;;;4.70;84.40;;;;;;5093304;28;19928;-64
2021/04/06 05:16:17;;;;;;;;;;;4.70;84.30;;;;;;5093643;28;19928;-65
2021/04/06 05:18:43;;;;;;;;;;;4.80;84.10;;;;;;5093533;28;19935;-65
2021/04/06 05:21:09;;;;;;;;;;;4.80;83.60;;;;;;5093215;28;20289;-63
2021/04/06 05:23:36;;;;;;;;;;;4.80;83.90;;;;;;5093491;28;19924;-63
2021/04/06 05:26:03;;;;;;;;;;;4.80;84.00;;;;;;5090753;28;19924;-63
2021/04/06 05:28:29;;;;;;;;;;;4.70;83.60;;;;;;5093567;28;19993;-64
2021/04/06 05:30:55;;;;;;;;;;;4.70;84.00;;;;;;5092881;28;20316;-64
2021/04/06 05:33:22;;;;;;;;;;;4.70;84.20;;;;;;5093550;28;20378;-64
2021/04/06 05:35:48;;;;;;;;;;;4.70;84.20;;;;;;5093037;28;19924;-64
2021/04/06 05:38:14;;;;;;;;;;;4.50;84.50;;;;;;5093186;28;20240;-64
2021/04/06 05:40:41;;;;;;;;;;;4.60;85.20;;;;;;5093248;28;19924;-64
2021/04/06 05:43:09;;;;;;;;;;;4.50;85.30;;;;;;5092649;28;20023;-64
2021/04/06 05:45:36;;;;;;;;;;;4.60;85.10;;;;;;5078455;28;20351;-64
2021/04/06 05:48:03;;;;;;;;;;;4.60;85.30;;;;;;5092771;28;19938;-65
2021/04/06 05:50:30;;;;;;;;;;;4.60;85.20;;;;;;5087731;28;19934;-65
2021/04/06 05:52:56;;;;;;;;;;;4.60;85.40;;;;;;5082430;28;20008;-65
2021/04/06 05:55:22;;;;;;;;;;;4.70;85.10;;;;;;5093203;28;19973;-64
2021/04/06 05:57:49;;;;;;;;;;;4.70;85.00;;;;;;5092472;28;19935;-64
2021/04/06 06:00:16;;;;;;;;;;;4.70;85.20;;;;;;5092762;28;19934;-64
2021/04/06 06:02:43;;;;;;;;;;;4.70;85.20;;;;;;5093015;28;20007;-64
2021/04/06 06:05:09;;;;;;;;;;;4.80;85.20;;;;;;5092418;28;19927;-64
2021/04/06 06:07:36;;;;;;;;;;;4.80;84.60;;;;;;5092943;28;20376;-64
2021/04/06 06:10:21;;;;;;;;;;;4.80;84.30;;;;;;5092418;28;19924;-64
2021/04/06 06:12:47;;;;;;;;;;;4.80;84.60;;;;;;5099196;28;19924;-64
2021/04/06 06:15:15;;;;;;;;;;;4.80;84.30;;;;;;5099319;28;20335;-63
2021/04/06 06:17:41;;;;;;;;;;;4.90;84.80;;;;;;5099739;28;19924;-63
2021/04/06 06:20:15;;;;;;;;;;;4.90;84.90;;;;;;5098905;28;19924;-65
2021/04/06 06:22:41;;;;;;;;;;;4.90;85.00;;;;;;5099550;28;20273;-64
2021/04/06 06:25:08;;;;;;;;;;;4.90;85.00;;;;;;5099301;28;19938;-64
2021/04/06 06:27:37;;;;;;;;;;;5.00;84.70;;;;;;5099413;28;19931;-64
2021/04/06 06:30:23;;;;;;;;;;;5.10;84.90;;;;;;5099149;28;19924;-64
2021/04/06 06:32:49;;;;;;;;;;;5.10;84.50;;;;;;5099530;28;19924;-64
2021/04/06 06:35:30;;;;;;;;;;;5.20;84.30;;;;;;5099410;28;21184;-64
2021/04/06 06:37:59;;;;;;;;;;;5.20;84.60;;;;;;5098569;28;19924;-63
2021/04/06 06:40:26;;;;;;;;;;;5.30;84.50;;;;;;5099226;28;19935;-64
2021/04/06 06:42:52;;;;;;;;;;;5.30;83.80;;;;;;5098919;28;19946;-64
2021/04/06 06:45:23;;;;;;;;;;;5.40;83.60;;;;;;5097209;28;20247;-63
2021/04/06 06:47:53;;;;;;;;;;;5.40;83.40;;;;;;5086430;28;19934;-64
2021/04/06 06:50:20;;;;;;;;;;;5.40;83.80;;;;;;5093070;28;20692;-64
2021/04/06 06:52:46;;;;;;;;;;;5.40;84.20;;;;;;5087146;28;19924;-64
2021/04/06 06:55:17;;;;;;;;;;;5.50;83.60;;;;;;5098635;28;20376;-64
2021/04/06 06:57:43;;;;;;;;;;;5.60;83.20;;;;;;5099229;28;20375;-64
2021/04/06 07:00:14;;;;;;;;;;;5.60;83.20;;;;;;5098725;28;19956;-64
2021/04/06 07:02:42;;;;;;;;;;;5.70;83.20;;;;;;5099502;28;19928;-64
2021/04/06 07:05:12;;;;;;;;;;;5.70;83.20;;;;;;5098026;28;19924;-63
2021/04/06 07:07:47;;;;;;;;;;;5.80;82.80;;;;;;5099519;28;19924;-63
2021/04/06 07:10:13;;;;;;;;;;;5.80;82.90;;;;;;5098761;28;20019;-63
2021/04/06 07:12:40;;;;;;;;;;;5.80;83.20;;;;;;5099171;28;20019;-64
2021/04/06 07:15:07;;;;;;;;;;;5.90;82.80;;;;;;5098981;28;19924;-64
2021/04/06 07:17:34;;;;;;;;;;;5.90;83.20;;;;;;5099232;28;19928;-65
2021/04/06 07:20:07;;;;;;;;;;;6.00;83.20;;;;;;5098739;28;19977;-65
2021/04/06 07:22:34;;;;;;;;;;;6.00;83.40;;;;;;5098245;28;20351;-63
2021/04/06 07:25:00;;;;;;;;;;;6.10;82.70;;;;;;5095659;28;19924;-63
2021/04/06 07:27:26;;;;;;;;;;;6.20;82.50;;;;;;5095700;28;19925;-64
2021/04/06 07:29:53;;;;;;;;;;;6.30;82.40;;;;;;5096066;28;19924;-64
2021/04/06 07:32:19;;;;;;;;;;;6.30;82.90;;;;;;5095247;28;19924;-64
2021/04/06 07:34:46;;;;;;;;;;;6.40;82.80;;;;;;5095860;28;19924;-64
2021/04/06 07:37:13;;;;;;;;;;;6.60;82.10;;;;;;5095444;28;20299;-65
2021/04/06 07:39:40;;;;;;;;;;;6.60;81.00;;;;;;5095664;28;19935;-64
2021/04/06 07:42:07;;;;;;;;;;;6.70;81.30;;;;;;5095229;28;19932;-64
2021/04/06 07:44:35;;;;;;;;;;;6.70;80.80;;;;;;5095585;28;20003;-64
2021/04/06 07:47:01;;;;;;;;;;;6.70;80.80;;;;;;5095126;28;19924;-63
2021/04/06 07:49:36;;;;;;;;;;;6.70;81.00;;;;;;5095324;28;19934;-64
2021/04/06 07:52:07;;;;;;;;;;;6.80;81.00;;;;;;5095098;28;19923;-64
2021/04/06 07:54:44;;;;;;;;;;;6.80;80.60;;;;;;5095683;28;19924;-65
2021/04/06 07:57:10;;;;;;;;;;;6.90;80.80;;;;;;5094930;28;20015;-63
2021/04/06 07:59:42;;;;;;;;;;;6.90;80.70;;;;;;5095200;28;20347;-64
2021/04/06 08:02:23;;;;;;;;;;;6.90;80.60;;;;;;5094952;28;20297;-64
2021/04/06 08:04:53;;;;;;;;;;;6.90;80.10;;;;;;5092849;28;19924;-63
2021/04/06 08:07:23;;;;;;;;;;;6.90;80.10;;;;;;5094658;28;19928;-63
2021/04/06 08:09:51;;;;;;;;;;;6.90;80.20;;;;;;5094869;28;20384;-63
2021/04/06 08:12:18;;;;;;;;;;;6.90;80.30;;;;;;5094631;28;20007;-65
2021/04/06 08:14:45;;;;;;;;;;;6.90;79.90;;;;;;5094890;28;20006;-65
2021/04/06 08:17:30;;;;;;;;;;;6.90;80.10;;;;;;5094485;28;20174;-65
2021/04/06 08:19:59;;;;;;;;;;;6.90;80.50;;;;;;5094931;28;19924;-64
2021/04/06 08:22:26;;;;;;;;;;;7.00;80.80;;;;;;5094589;28;19924;-65
2021/04/06 08:24:53;;;;;;;;;;;7.00;81.00;;;;;;5094903;28;19984;-64
2021/04/06 08:27:35;;;;;;;;;;;7.10;80.40;;;;;;5094316;28;19930;-65
2021/04/06 08:30:21;;;;;;;;;;;7.10;79.80;;;;;;5094857;28;19935;-64
2021/04/06 08:33:17;;;;;;;;;;;7.10;80.40;;;;;;5094723;28;19993;-64
2021/04/06 08:36:02;;;;;;;;;;;7.20;80.20;;;;;;5093530;28;19939;-64
2021/04/06 08:38:44;;;;;;;;;;;7.20;79.70;;;;;;5094634;28;19998;-64
2021/04/06 08:41:13;;;;;;;;;;;7.30;79.10;;;;;;5094333;28;19924;-64
2021/04/06 08:43:42;;;;;;;;;;;7.30;79.50;;;;;;5094563;28;19928;-64
2021/04/06 08:46:09;;;;;;;;;;;7.30;80.00;;;;;;5093935;28;19930;-63
2021/04/06 08:48:50;;;;;;;;;;;7.40;80.40;;;;;;5094302;28;20329;-63
2021/04/06 08:51:16;;;;;;;;;;;7.40;80.70;;;;;;5094137;28;20915;-64
2021/04/06 08:53:43;;;;;;;;;;;7.50;80.00;;;;;;5094331;28;19934;-64
2021/04/06 08:56:11;;;;;;;;;;;7.60;79.40;;;;;;5093559;28;19924;-64
2021/04/06 08:58:37;;;;;;;;;;;7.70;79.00;;;;;;5094265;28;19924;-64
2021/04/06 09:01:04;;;;;;;;;;;7.70;78.60;;;;;;5093708;28;20273;-64
2021/04/06 09:03:31;;;;;;;;;;;7.70;79.00;;;;;;5094076;28;19938;-64
2021/04/06 09:06:03;;;;;;;;;;;7.70;78.90;;;;;;5093770;28;19924;-64
2021/04/06 09:08:29;;;;;;;;;;;7.70;79.40;;;;;;5094116;28;19924;-63
2021/04/06 09:11:04;;;;;;;;;;;7.80;79.50;;;;;;5093605;28;20387;-63
2021/04/06 09:13:32;;;;;;;;;;;7.80;78.30;;;;;;5093879;28;19925;-64
2021/04/06 09:15:59;;;;;;;;;;;7.80;78.30;;;;;;5093410;28;20347;-64
2021/04/06 09:18:26;;;;;;;;;;;7.80;78.60;;;;;;5093732;28;20366;-64
2021/04/06 09:20:52;;;;;;;;;;;7.80;78.40;;;;;;5093703;28;20362;-64
2021/04/06 09:23:19;;;;;;;;;;;7.90;78.70;;;;;;5093535;28;19924;-64
2021/04/06 09:25:45;;;;;;;;;;;7.90;79.10;;;;;;5093632;28;19931;-64
2021/04/06 09:28:13;;;;;;;;;;;8.00;78.40;;;;;;5093187;28;19924;-64
2021/04/06 09:30:44;;;;;;;;;;;8.10;78.20;;;;;;5093540;28;19928;-64
2021/04/06 09:33:11;;;;;;;;;;;8.10;78.10;;;;;;5093115;28;19924;-63
2021/04/06 09:35:38;;;;;;;;;;;8.10;78.20;;;;;;5093784;28;19953;-64
2021/04/06 09:38:04;;;;;;;;;;;8.10;77.50;;;;;;5092956;28;20417;-63
2021/04/06 09:40:33;;;;;;;;;;;8.10;76.50;;;;;;5093249;28;19928;-64
2021/04/06 09:42:59;;;;;;;;;;;8.10;76.80;;;;;;5093020;28;19924;-64
2021/04/06 09:45:26;;;;;;;;;;;8.10;77.40;;;;;;5092946;28;20335;-64
2021/04/06 09:47:53;;;;;;;;;;;8.10;77.00;;;;;;5092968;28;19927;-64
2021/04/06 09:50:20;;;;;;;;;;;8.20;77.10;;;;;;5092623;28;20034;-65
2021/04/06 09:52:46;;;;;;;;;;;8.20;76.70;;;;;;5093255;28;20369;-64
2021/04/06 09:55:13;;;;;;;;;;;8.30;76.10;;;;;;5092595;28;20373;-65
2021/04/06 09:57:40;;;;;;;;;;;8.30;73.70;;;;;;5093115;28;19923;-65
2021/04/06 10:00:09;;;;;;;;;;;8.30;72.80;;;;;;5092405;28;19934;-64
2021/04/06 10:02:35;;;;;;;;;;;8.40;72.60;;;;;;5093253;28;20063;-64
2021/04/06 10:05:03;;;;;;;;;;;8.40;73.30;;;;;;5092555;28;19934;-64
2021/04/06 10:07:30;;;;;;;;;;;8.40;73.10;;;;;;5092833;28;19925;-64
2021/04/06 10:09:57;;;;;;;;;;;8.50;72.70;;;;;;5093299;28;19931;-63
2021/04/06 10:12:24;;;;;;;;;;;8.50;72.40;;;;;;5092720;28;19924;-64
2021/04/06 10:14:51;;;;;;;;;;;8.50;72.60;;;;;;5092967;28;20015;-65
2021/04/06 10:17:18;;;;;;;;;;;8.60;72.10;;;;;;5092566;28;19924;-64
2021/04/06 10:19:46;;;;;;;;;;;8.60;71.20;;;;;;5093063;28;19961;-64
2021/04/06 10:22:13;;;;;;;;;;;8.60;71.00;;;;;;5089826;28;19928;-64
2021/04/06 10:24:41;;;;;;;;;;;8.60;71.20;;;;;;5091943;28;20018;-63
2021/04/06 10:27:16;;;;;;;;;;;8.60;71.20;;;;;;5091678;28;20023;-63
2021/04/06 10:29:46;;;;;;;;;;;8.60;72.00;;;;;;5088109;28;19928;-64
2021/04/06 10:32:23;;;;;;;;;;;8.70;72.30;;;;;;5081176;28;19938;-63
2021/04/06 10:34:57;;;;;;;;;;;8.80;72.70;;;;;;5079486;28;19928;-64
2021/04/06 10:37:24;;;;;;;;;;;8.80;72.50;;;;;;5087611;28;19924;-61
2021/04/06 10:39:51;;;;;;;;;;;8.90;73.70;;;;;;5072137;28;19935;-66
2021/04/06 10:42:18;;;;;;;;;;;8.90;74.20;;;;;;5078256;28;19925;-65
2021/04/06 10:44:46;;;;;;;;;;;9.00;74.70;;;;;;5078151;28;20187;-65
2021/04/06 10:47:23;;;;;;;;;;;9.00;73.60;;;;;;5078434;28;20007;-64
2021/04/06 10:49:56;;;;;;;;;;;9.00;74.10;;;;;;5083519;28;20409;-65
2021/04/06 10:52:29;;;;;;;;;;;9.00;75.00;;;;;;5084375;28;20027;-67
2021/04/06 10:54:55;;;;;;;;;;;9.20;72.00;;;;;;5092051;28;19935;-67
2021/04/06 10:57:26;;;;;;;;;;;9.30;71.70;;;;;;5082093;28;20027;-66
2021/04/06 10:59:52;;;;;;;;;;;9.30;71.20;;;;;;5093626;28;20346;-65
2021/04/06 11:02:19;;;;;;;;;;;9.40;71.50;;;;;;5087295;28;20029;-64
2021/04/06 11:04:46;;;;;;;;;;;9.50;71.10;;;;;;5092098;28;19936;-62
2021/04/06 11:07:12;;;;;;;;;;;9.60;69.20;;;;;;5089150;28;19924;-67
2021/04/06 11:09:40;;;;;;;;;;;9.70;67.00;;;;;;5085474;28;20007;-66
2021/04/06 11:12:07;;;;;;;;;;;9.80;64.90;;;;;;5093768;28;19928;-64
2021/04/06 11:14:34;;;;;;;;;;;9.80;62.70;;;;;;5078720;28;19963;-66
2021/04/06 11:17:05;;;;;;;;;;;9.70;61.70;;;;;;5093290;28;19969;-65
2021/04/06 11:19:32;;;;;;;;;;;9.60;60.70;;;;;;5093956;28;19956;-67
2021/04/06 11:21:59;;;;;;;;;;;9.60;61.50;;;;;;5092301;28;19939;-64
2021/04/06 11:24:28;;;;;;;;;;;9.60;62.10;;;;;;5082861;28;20015;-64
2021/04/06 11:26:55;;;;;;;;;;;9.60;62.70;;;;;;5093194;28;19924;-63
2021/04/06 11:29:23;;;;;;;;;;;9.50;62.00;;;;;;5091695;28;20350;-67
2021/04/06 11:31:50;;;;;;;;;;;9.50;62.60;;;;;;5081639;28;20011;-68
2021/04/06 11:34:17;;;;;;;;;;;9.40;62.90;;;;;;5087166;28;19974;-65
2021/04/06 11:36:44;;;;;;;;;;;9.50;62.30;;;;;;5089738;28;20369;-60
2021/04/06 11:39:11;;;;;;;;;;;9.40;62.40;;;;;;5087599;28;19924;-63
2021/04/06 11:41:37;;;;;;;;;;;9.30;63.50;;;;;;5087657;28;19963;-63
2021/04/06 11:44:05;;;;;;;;;;;9.20;67.90;;;;;;5094999;28;20392;-68
2021/04/06 11:46:32;;;;;;;;;;;9.10;72.70;;;;;;5092074;28;19924;-65
2021/04/06 11:48:58;;;;;;;;;;;8.90;75.10;;;;;;5084954;28;19984;-64
2021/04/06 11:51:24;;;;;;;;;;;8.70;73.20;;;;;;5075384;28;20266;-67
2021/04/06 11:53:50;;;;;;;;;;;8.60;70.50;;;;;;5091165;28;20252;-63
2021/04/06 11:56:17;;;;;;;;;;;8.40;71.50;;;;;;5090763;28;20266;-66
2021/04/06 11:58:43;;;;;;;;;;;8.40;73.00;;;;;;5080201;28;20011;-67
2021/04/06 12:01:10;;;;;;;;;;;8.30;74.50;;;;;;5085053;28;19924;-67
2021/04/06 12:03:37;;;;;;;;;;;8.40;75.10;;;;;;5091426;28;19924;-66
2021/04/06 12:06:03;;;;;;;;;;;8.50;74.10;;;;;;5081360;28;19925;-65
2021/04/06 12:08:29;;;;;;;;;;;8.40;72.90;;;;;;5092799;28;19930;-68
2021/04/06 12:10:55;;;;;;;;;;;8.50;72.70;;;;;;5092990;28;19924;-68
2021/04/06 12:13:22;;;;;;;;;;;8.50;72.10;;;;;;5094341;28;20041;-67
2021/04/06 12:15:48;;;;;;;;;;;8.50;71.70;;;;;;5088444;28;20141;-68
2021/04/06 12:18:15;;;;;;;;;;;8.50;72.60;;;;;;5094100;28;19938;-67
2021/04/06 12:20:41;;;;;;;;;;;8.50;71.70;;;;;;5087981;28;19932;-64
2021/04/06 12:23:08;;;;;;;;;;;8.60;68.90;;;;;;5085110;28;19924;-66
2021/04/06 12:25:34;;;;;;;;;;;8.70;69.10;;;;;;5079059;28;20321;-67
2021/04/06 12:28:00;;;;;;;;;;;8.80;67.10;;;;;;5094617;28;20007;-63
2021/04/06 12:30:27;;;;;;;;;;;8.80;63.60;;;;;;5089662;28;19928;-63
2021/04/06 12:32:53;;;;;;;;;;;8.80;61.10;;;;;;5087514;28;20022;-65
2021/04/06 12:35:20;;;;;;;;;;;8.80;60.50;;;;;;5077511;28;19931;-66
2021/04/06 12:37:46;;;;;;;;;;;8.90;58.80;;;;;;5087492;28;19928;-67
2021/04/06 12:40:13;;;;;;;;;;;8.90;58.20;;;;;;5078598;28;20269;-67
2021/04/06 12:42:40;;;;;;;;;;;9.00;56.80;;;;;;5084521;28;20007;-69
2021/04/06 12:45:08;;;;;;;;;;;9.10;56.40;;;;;;5089847;28;19935;-67
2021/04/06 12:47:34;;;;;;;;;;;9.20;56.10;;;;;;5087237;28;20019;-67
2021/04/06 12:50:00;;;;;;;;;;;9.40;56.00;;;;;;5088609;28;20374;-61
2021/04/06 12:52:28;;;;;;;;;;;9.50;56.80;;;;;;5093282;28;20335;-62
2021/04/06 12:54:54;;;;;;;;;;;9.50;56.40;;;;;;5089054;28;19928;-64
2021/04/06 12:57:22;;;;;;;;;;;9.60;54.60;;;;;;5082400;28;19924;-66
2021/04/06 12:59:49;;;;;;;;;;;9.60;54.80;;;;;;5091814;28;19924;-60
2021/04/06 13:02:15;;;;;;;;;;;9.70;53.80;;;;;;5089614;28;19928;-62
2021/04/06 13:04:41;;;;;;;;;;;9.70;53.70;;;;;;5087077;28;19928;-62
2021/04/06 13:07:07;;;;;;;;;;;9.70;52.40;;;;;;5087623;28;20019;-62
2021/04/06 13:09:34;;;;;;;;;;;9.80;52.70;;;;;;5080323;28;19931;-65
2021/04/06 13:12:01;;;;;;;;;;;9.80;52.70;;;;;;5076301;28;20545;-63
2021/04/06 13:14:27;;;;;;;;;;;9.80;52.20;;;;;;5074612;28;20366;-64
2021/04/06 13:16:53;;;;;;;;;;;9.80;52.80;;;;;;5082437;28;19924;-64
2021/04/06 13:19:19;;;;;;;;;;;9.80;53.60;;;;;;5083333;28;20384;-63
2021/04/06 13:21:46;;;;;;;;;;;9.80;54.70;;;;;;5083426;28;19950;-64
2021/04/06 13:24:15;;;;;;;;;;;9.70;56.10;;;;;;5087295;28;19928;-64
2021/04/06 13:26:42;;;;;;;;;;;9.70;56.40;;;;;;5077868;28;19924;-63
2021/04/06 13:29:08;;;;;;;;;;;9.70;57.00;;;;;;5079189;28;19933;-63
2021/04/06 13:31:35;;;;;;;;;;;9.70;56.90;;;;;;5080112;28;19924;-63
2021/04/06 13:34:02;;;;;;;;;;;9.70;56.40;;;;;;5082040;28;19924;-65
2021/04/06 13:36:28;;;;;;;;;;;9.70;56.40;;;;;;5076392;28;19929;-64
2021/04/06 13:38:54;;;;;;;;;;;9.60;56.70;;;;;;5092215;28;19984;-63
2021/04/06 13:41:21;;;;;;;;;;;9.50;57.60;;;;;;5084885;28;19934;-64
2021/04/06 13:43:48;;;;;;;;;;;9.60;58.20;;;;;;5092424;28;19963;-63
2021/04/06 13:46:15;;;;;;;;;;;9.50;58.90;;;;;;5088827;28;19924;-63
2021/04/06 13:48:44;;;;;;;;;;;9.60;59.50;;;;;;5092591;28;19928;-64
2021/04/06 13:51:10;;;;;;;;;;;9.70;60.00;;;;;;5089370;28;19936;-63
2021/04/06 13:53:36;;;;;;;;;;;9.80;61.00;;;;;;5092442;28;19938;-64
2021/04/06 13:56:03;;;;;;;;;;;9.80;62.30;;;;;;5090216;28;20021;-63
2021/04/06 13:58:29;;;;;;;;;;;9.90;63.40;;;;;;5079099;28;19934;-63
2021/04/06 14:00:56;;;;;;;;;;;9.90;64.30;;;;;;5090053;28;20399;-64
2021/04/06 14:03:24;;;;;;;;;;;10.00;62.30;;;;;;5095710;28;20002;-64
2021/04/06 14:05:51;;;;;;;;;;;10.10;61.10;;;;;;5087836;28;19932;-64
2021/04/06 14:08:17;;;;;;;;;;;10.00;59.40;;;;;;5084703;28;20650;-63
2021/04/06 14:10:44;;;;;;;;;;;10.00;58.30;;;;;;5089227;28;19924;-64
2021/04/06 14:13:10;;;;;;;;;;;9.90;57.70;;;;;;5082797;28;19931;-64
2021/04/06 14:15:37;;;;;;;;;;;9.80;57.80;;;;;;5089594;28;19924;-63
2021/04/06 14:18:05;;;;;;;;;;;9.70;58.90;;;;;;5074751;28;19928;-63
2021/04/06 14:20:33;;;;;;;;;;;9.50;60.30;;;;;;5086305;28;19929;-63
2021/04/06 14:22:59;;;;;;;;;;;9.40;62.60;;;;;;5085876;28;20265;-63
2021/04/06 14:25:27;;;;;;;;;;;9.40;64.90;;;;;;5083120;28;19968;-64
2021/04/06 14:27:54;;;;;;;;;;;9.30;67.20;;;;;;5076776;28;19924;-62
2021/04/06 14:30:23;;;;;;;;;;;9.20;69.90;;;;;;5087163;28;20621;-63
2021/04/06 14:32:50;;;;;;;;;;;9.10;70.90;;;;;;5084293;28;19924;-63
2021/04/06 14:35:17;;;;;;;;;;;9.00;72.50;;;;;;5081844;28;19940;-63